createdAt,value
2022-11-10T00:01:07.702Z,6.80
2022-11-10T00:03:53.777Z,5.05
2022-11-10T00:06:41.225Z,3.92
2022-11-10T00:09:27.230Z,3.92
2022-11-10T00:12:13.160Z,4.23
2022-11-10T00:15:18.284Z,3.70
2022-11-10T00:18:05.295Z,4.35
2022-11-10T00:20:51.290Z,3.40
2022-11-10T00:23:37.312Z,3.45
2022-11-10T00:26:23.435Z,3.13
2022-11-10T00:29:09.329Z,3.13
2022-11-10T00:31:55.484Z,3.37
2022-11-10T00:34:41.634Z,4.00
2022-11-10T00:37:27.646Z,4.35
2022-11-10T00:40:13.574Z,4.45
2022-11-10T00:42:59.655Z,3.85
2022-11-10T00:45:47.282Z,4.23
2022-11-10T00:48:33.523Z,3.67
2022-11-10T00:51:28.044Z,3.80
2022-11-10T00:54:14.187Z,3.50
2022-11-10T00:57:00.250Z,3.70
2022-11-10T00:59:46.511Z,4.30
2022-11-10T01:02:32.665Z,4.43
2022-11-10T01:05:18.741Z,3.78
2022-11-10T01:08:05.619Z,4.20
2022-11-10T01:10:51.538Z,3.22
2022-11-10T01:13:37.614Z,4.33
2022-11-10T01:16:27.031Z,5.53
2022-11-10T01:19:12.976Z,4.15
2022-11-10T01:22:01.181Z,4.65
2022-11-10T01:24:47.091Z,3.55
2022-11-10T01:27:33.089Z,3.80
2022-11-10T01:30:20.049Z,4.03
2022-11-10T01:35:52.248Z,3.92
2022-11-10T01:38:40.355Z,3.78
2022-11-10T01:41:26.562Z,4.38
2022-11-10T01:44:22.037Z,3.53
2022-11-10T01:47:08.685Z,4.13
2022-11-10T01:49:54.913Z,5.88
2022-11-10T01:52:44.178Z,3.80
2022-11-10T01:55:32.490Z,3.80
2022-11-10T01:58:24.537Z,2.95
2022-11-10T02:01:10.885Z,3.97
2022-11-10T02:04:01.618Z,3.60
2022-11-10T02:06:49.650Z,3.67
2022-11-10T02:09:35.612Z,3.50
2022-11-10T02:12:37.131Z,3.85
2022-11-10T02:15:23.999Z,3.35
2022-11-10T02:20:56.330Z,3.08
2022-11-10T02:23:46.246Z,3.70
2022-11-10T02:26:32.766Z,4.50
2022-11-10T02:29:19.266Z,4.60
2022-11-10T02:32:05.360Z,3.95
2022-11-10T02:34:51.254Z,3.22
2022-11-10T02:37:37.512Z,3.38
2022-11-10T02:40:23.672Z,3.80
2022-11-10T02:43:12.825Z,3.65
2022-11-10T02:45:58.817Z,4.88
2022-11-10T02:48:45.099Z,3.53
2022-11-10T02:51:31.232Z,3.85
2022-11-10T02:54:17.092Z,3.50
2022-11-10T02:57:03.128Z,3.92
2022-11-10T02:59:49.314Z,3.72
2022-11-10T03:02:35.303Z,3.65
2022-11-10T03:05:21.537Z,3.58
2022-11-10T03:08:07.703Z,3.22
2022-11-10T03:10:55.425Z,3.20
2022-11-10T03:14:00.447Z,3.60
2022-11-10T03:16:47.136Z,3.35
2022-11-10T03:19:33.240Z,3.00
2022-11-10T03:22:19.131Z,4.65
2022-11-10T03:25:06.351Z,3.33
2022-11-10T03:27:52.508Z,2.90
2022-11-10T03:30:38.784Z,3.17
2022-11-10T03:33:25.059Z,3.95
2022-11-10T03:36:11.736Z,2.90
2022-11-10T03:38:57.471Z,2.70
2022-11-10T03:41:43.352Z,2.70
2022-11-10T03:44:29.532Z,2.88
2022-11-10T03:47:15.481Z,3.00
2022-11-10T03:50:01.285Z,3.67
2022-11-10T03:52:47.383Z,3.45
2022-11-10T03:55:33.433Z,2.85
2022-11-10T03:58:19.628Z,2.97
2022-11-10T04:01:05.616Z,2.60
2022-11-10T04:03:51.853Z,3.50
2022-11-10T04:06:56.368Z,3.33
2022-11-10T04:09:42.466Z,3.20
2022-11-10T04:12:46.652Z,4.35
2022-11-10T04:15:44.839Z,3.40
2022-11-10T04:18:31.048Z,3.75
2022-11-10T04:21:17.328Z,3.47
2022-11-10T04:24:04.230Z,2.75
2022-11-10T04:26:50.302Z,2.47
2022-11-10T04:29:36.664Z,2.92
2022-11-10T04:32:22.711Z,3.00
2022-11-10T04:35:09.173Z,2.70
2022-11-10T04:37:55.034Z,2.80
2022-11-10T04:40:40.876Z,2.83
2022-11-10T04:43:27.260Z,3.00
2022-11-10T04:46:33.714Z,2.92
2022-11-10T04:49:19.701Z,3.53
2022-11-10T04:52:05.822Z,3.05
2022-11-10T04:54:51.807Z,3.42
2022-11-10T04:57:37.675Z,2.90
2022-11-10T05:00:23.918Z,2.75
2022-11-10T05:03:11.493Z,2.90
2022-11-10T05:05:57.779Z,3.00
2022-11-10T05:08:44.894Z,3.00
2022-11-10T05:11:30.519Z,3.20
2022-11-10T05:14:16.249Z,3.00
2022-11-10T05:17:02.294Z,3.40
2022-11-10T05:19:48.341Z,3.20
2022-11-10T05:22:34.793Z,3.75
2022-11-10T05:25:20.949Z,4.15
2022-11-10T05:28:08.826Z,2.70
2022-11-10T05:30:54.974Z,3.17
2022-11-10T05:33:41.061Z,3.25
2022-11-10T05:36:27.158Z,2.97
2022-11-10T05:39:13.147Z,3.40
2022-11-10T05:41:59.358Z,3.87
2022-11-10T05:44:45.237Z,3.97
2022-11-10T05:47:31.287Z,3.22
2022-11-10T05:50:18.988Z,3.72
2022-11-10T05:53:04.961Z,3.10
2022-11-10T05:55:52.062Z,3.63
2022-11-10T05:58:37.634Z,4.20
2022-11-10T06:01:23.668Z,4.15
2022-11-10T06:04:09.534Z,3.92
2022-11-10T06:06:55.464Z,5.60
2022-11-10T06:09:41.502Z,3.50
2022-11-10T06:12:30.400Z,4.20
2022-11-10T06:15:17.065Z,4.70
2022-11-10T06:18:03.661Z,3.63
2022-11-10T06:20:49.599Z,4.43
2022-11-10T06:23:35.489Z,3.78
2022-11-10T06:26:21.459Z,3.78
2022-11-10T06:29:07.642Z,4.10
2022-11-10T06:31:53.751Z,4.75
2022-11-10T06:34:39.738Z,3.95
2022-11-10T06:37:25.878Z,4.40
2022-11-10T06:40:14.153Z,4.30
2022-11-10T06:43:00.234Z,3.92
2022-11-10T06:45:46.142Z,4.20
2022-11-10T06:48:32.163Z,4.20
2022-11-10T06:51:18.570Z,4.37
2022-11-10T06:54:04.610Z,4.60
2022-11-10T06:56:50.743Z,4.40
2022-11-10T06:59:36.911Z,4.45
2022-11-10T07:02:22.810Z,4.10
2022-11-10T07:05:09.090Z,4.80
2022-11-10T07:07:55.122Z,4.95
2022-11-10T07:10:41.271Z,4.97
2022-11-10T07:13:27.231Z,4.75
2022-11-10T07:16:13.100Z,5.07
2022-11-10T07:18:59.151Z,4.70
2022-11-10T07:21:45.056Z,5.30
2022-11-10T07:24:30.960Z,5.32
2022-11-10T07:27:16.954Z,6.47
2022-11-10T07:30:04.032Z,5.30
2022-11-10T07:33:06.475Z,5.25
2022-11-10T07:35:57.981Z,4.75
2022-11-10T07:38:43.769Z,4.90
2022-11-10T07:41:29.703Z,5.18
2022-11-10T07:44:15.606Z,4.60
2022-11-10T07:47:02.994Z,4.03
2022-11-10T07:49:49.039Z,4.10
2022-11-10T07:52:35.503Z,4.55
2022-11-10T07:55:21.961Z,4.03
2022-11-10T07:58:09.003Z,4.10
2022-11-10T08:00:54.878Z,3.80
2022-11-10T08:03:41.068Z,3.70
2022-11-10T08:06:28.454Z,4.38
2022-11-10T08:09:15.142Z,3.95
2022-11-10T08:12:01.358Z,4.22
2022-11-10T08:14:47.203Z,4.07
2022-11-10T08:17:33.263Z,3.83
2022-11-10T08:20:19.413Z,4.32
2022-11-10T08:23:06.758Z,4.75
2022-11-10T08:25:53.471Z,4.00
2022-11-10T08:28:39.503Z,4.75
2022-11-10T08:31:25.797Z,4.18
2022-11-10T08:34:11.659Z,4.30
2022-11-10T08:36:58.028Z,4.20
2022-11-10T08:39:44.265Z,4.57
2022-11-10T08:42:30.121Z,3.97
2022-11-10T08:45:16.153Z,3.93
2022-11-10T08:48:13.172Z,3.63
2022-11-10T08:51:00.940Z,3.83
2022-11-10T08:53:47.117Z,3.72
2022-11-10T08:56:33.869Z,4.47
2022-11-10T08:59:20.019Z,3.47
2022-11-10T09:02:06.024Z,3.47
2022-11-10T09:04:53.631Z,4.40
2022-11-10T09:07:44.513Z,3.28
2022-11-10T09:10:31.534Z,3.33
2022-11-10T09:13:26.084Z,3.35
2022-11-10T09:16:15.648Z,3.35
2022-11-10T09:25:34.759Z,2.92
2022-11-10T09:28:21.325Z,3.90
2022-11-10T09:31:07.544Z,3.15
2022-11-10T09:33:53.609Z,3.25
2022-11-10T09:36:40.432Z,3.73
2022-11-10T09:42:21.328Z,3.53
2022-11-10T09:45:39.527Z,2.67
2022-11-10T09:48:37.427Z,2.75
2022-11-10T09:51:31.961Z,2.60
2022-11-10T09:54:48.481Z,2.33
2022-11-10T09:57:34.826Z,2.70
2022-11-10T10:00:21.113Z,3.20
2022-11-10T10:03:08.215Z,2.47
2022-11-10T10:05:57.087Z,2.38
2022-11-10T10:09:11.943Z,2.28
2022-11-10T10:12:40.839Z,2.47
2022-11-10T10:16:04.638Z,1.88
2022-11-10T10:19:06.875Z,2.10
2022-11-10T10:22:17.839Z,2.15
2022-11-10T10:25:13.530Z,2.30
2022-11-10T10:28:28.639Z,2.55
2022-11-10T10:31:47.198Z,2.50
2022-11-10T10:34:35.308Z,1.92
2022-11-10T10:37:23.201Z,2.20
2022-11-10T10:40:15.140Z,2.15
2022-11-10T10:43:01.173Z,1.67
2022-11-10T10:46:04.686Z,1.87
2022-11-10T10:49:27.843Z,2.05
2022-11-10T10:52:25.021Z,2.30
2022-11-10T10:55:14.103Z,2.10
2022-11-10T10:58:19.505Z,1.73
2022-11-10T11:01:20.246Z,1.83
2022-11-10T11:04:27.201Z,1.65
2022-11-10T11:07:25.251Z,2.13
2022-11-10T11:10:22.517Z,2.22
2022-11-10T11:13:21.596Z,1.85
2022-11-10T11:16:14.929Z,2.08
2022-11-10T11:19:02.260Z,1.70
2022-11-10T11:21:54.037Z,1.50
2022-11-10T11:24:48.439Z,1.80
2022-11-10T11:27:49.411Z,1.88
2022-11-10T11:30:44.703Z,1.83
2022-11-10T11:33:33.903Z,1.35
2022-11-10T11:36:38.337Z,1.40
2022-11-10T11:39:44.382Z,1.60
2022-11-10T11:42:46.092Z,1.65
2022-11-10T11:45:50.118Z,1.55
2022-11-10T11:49:07.118Z,1.60
2022-11-10T11:51:56.511Z,1.35
2022-11-10T11:55:07.564Z,1.52
2022-11-10T11:58:36.580Z,1.30
2022-11-10T12:01:29.650Z,1.08
2022-11-10T12:04:38.017Z,1.77
2022-11-10T12:07:29.844Z,1.35
2022-11-10T12:10:24.729Z,1.50
2022-11-10T12:13:25.818Z,1.73
2022-11-10T12:16:24.584Z,1.65
2022-11-10T12:19:32.860Z,1.30
2022-11-10T12:22:40.326Z,1.55
2022-11-10T12:25:59.464Z,1.23
2022-11-10T12:29:18.799Z,1.33
2022-11-10T12:32:43.182Z,1.90
2022-11-10T12:35:35.795Z,2.00
2022-11-10T12:38:26.915Z,1.80
2022-11-10T12:41:17.122Z,1.35
2022-11-10T12:44:21.286Z,1.00
2022-11-10T12:47:15.848Z,1.38
2022-11-10T12:50:08.881Z,1.50
2022-11-10T12:53:03.555Z,1.63
2022-11-10T12:56:05.359Z,1.20
2022-11-10T12:59:20.022Z,1.17
2022-11-10T13:02:51.156Z,1.73
2022-11-10T13:05:45.597Z,1.50
2022-11-10T13:08:35.997Z,1.17
2022-11-10T13:11:42.533Z,1.20
2022-11-10T13:14:30.045Z,1.42
2022-11-10T13:17:26.150Z,1.17
2022-11-10T13:20:39.752Z,1.50
2022-11-10T13:23:31.720Z,1.77
2022-11-10T13:26:39.253Z,1.30
2022-11-10T13:29:32.099Z,1.40
2022-11-10T13:32:35.327Z,1.30
2022-11-10T13:35:30.488Z,1.38
2022-11-10T13:38:36.748Z,1.58
2022-11-10T13:44:42.172Z,1.45
2022-11-10T13:47:42.513Z,1.23
2022-11-10T13:50:38.370Z,1.35
2022-11-10T13:53:24.004Z,1.48
2022-11-10T13:56:22.575Z,1.38
2022-11-10T13:59:30.642Z,1.45
2022-11-10T14:02:34.754Z,1.45
2022-11-10T14:05:38.628Z,1.70
2022-11-10T14:08:29.362Z,1.48
2022-11-10T14:11:35.547Z,1.30
2022-11-10T14:14:36.078Z,1.42
2022-11-10T14:17:36.530Z,1.25
2022-11-10T14:20:27.672Z,1.55
2022-11-10T14:23:24.996Z,1.30
2022-11-10T14:26:34.893Z,1.45
2022-11-10T14:29:32.611Z,1.42
2022-11-10T14:32:24.944Z,2.00
2022-11-10T14:35:24.088Z,1.42
2022-11-10T14:38:27.874Z,1.23
2022-11-10T14:41:21.924Z,1.15
2022-11-10T14:44:22.818Z,1.50
2022-11-10T14:47:16.066Z,1.42
2022-11-10T14:50:06.143Z,1.40
2022-11-10T14:52:57.431Z,1.23
2022-11-10T14:55:46.892Z,1.20
2022-11-10T14:58:38.597Z,1.13
2022-11-10T15:01:24.643Z,1.52
2022-11-10T15:04:12.219Z,1.33
2022-11-10T15:07:00.492Z,1.10
2022-11-10T15:10:16.055Z,1.35
2022-11-10T15:13:14.304Z,1.27
2022-11-10T15:16:29.499Z,1.52
2022-11-10T15:19:31.779Z,1.10
2022-11-10T15:22:29.726Z,1.60
2022-11-10T15:25:21.602Z,1.58
2022-11-10T15:28:13.980Z,1.40
2022-11-10T15:31:06.636Z,1.02
2022-11-10T15:33:55.851Z,1.58
2022-11-10T15:36:41.629Z,1.88
2022-11-10T15:39:28.856Z,1.48
2022-11-10T15:42:23.889Z,1.63
2022-11-10T15:45:10.212Z,1.40
2022-11-10T15:47:56.652Z,1.58
2022-11-10T15:50:46.055Z,1.25
2022-11-10T15:53:43.905Z,1.00
2022-11-10T15:56:31.114Z,1.73
2022-11-10T16:02:03.048Z,1.07
2022-11-10T16:04:53.403Z,1.10
2022-11-10T16:07:43.206Z,1.40
2022-11-10T16:10:30.468Z,0.95
2022-11-10T16:13:21.496Z,1.20
2022-11-10T16:16:08.017Z,1.55
2022-11-10T16:18:54.316Z,1.15
2022-11-10T16:21:40.312Z,1.35
2022-11-10T16:24:26.664Z,1.42
2022-11-10T16:27:14.905Z,1.50
2022-11-10T16:30:00.747Z,1.45
2022-11-10T16:32:46.712Z,1.60
2022-11-10T16:35:32.930Z,1.20
2022-11-10T16:38:20.810Z,1.15
2022-11-10T16:41:14.479Z,1.60
2022-11-10T16:44:00.885Z,2.00
2022-11-10T16:46:53.722Z,1.63
2022-11-10T16:49:44.389Z,1.15
2022-11-10T16:52:30.407Z,1.60
2022-11-10T16:55:16.122Z,1.58
2022-11-10T16:58:02.111Z,4.17
2022-11-10T17:00:48.886Z,3.13
2022-11-10T17:03:38.136Z,2.72
2022-11-10T17:06:26.535Z,2.30
2022-11-10T17:09:21.679Z,3.03
2022-11-10T17:12:14.861Z,2.60
2022-11-10T17:15:00.668Z,2.70
2022-11-10T17:17:51.489Z,2.63
2022-11-10T17:20:40.458Z,2.78
2022-11-10T17:23:27.042Z,2.50
2022-11-10T17:29:00.474Z,2.95
2022-11-10T17:31:46.856Z,2.73
2022-11-10T17:34:32.899Z,2.60
2022-11-10T17:37:19.288Z,2.63
2022-11-10T17:40:23.418Z,2.30
2022-11-10T17:43:12.118Z,3.78
2022-11-10T17:45:58.543Z,4.03
2022-11-10T17:48:45.692Z,3.38
2022-11-10T17:51:33.589Z,3.10
2022-11-10T17:54:19.838Z,2.75
2022-11-10T17:57:06.797Z,2.90
2022-11-10T18:02:38.410Z,2.03
2022-11-10T18:05:24.488Z,2.47
2022-11-10T18:08:12.245Z,2.50
2022-11-10T18:11:01.232Z,2.40
2022-11-10T18:13:47.506Z,2.30
2022-11-10T18:16:33.729Z,2.55
2022-11-10T18:19:19.891Z,3.00
2022-11-10T18:22:07.476Z,2.83
2022-11-10T18:24:53.599Z,2.92
2022-11-10T18:27:39.516Z,3.67
2022-11-10T18:30:25.700Z,3.43
2022-11-10T18:33:12.559Z,4.05
2022-11-10T18:38:45.127Z,4.65
2022-11-10T18:41:49.104Z,5.97
2022-11-10T18:44:38.710Z,4.90
2022-11-10T18:47:24.602Z,4.97
2022-11-10T18:50:11.189Z,4.88
2022-11-10T18:52:57.751Z,5.30
2022-11-10T18:55:53.659Z,4.80
2022-11-10T18:58:40.241Z,5.22
2022-11-10T19:01:26.756Z,4.95
2022-11-10T19:04:13.877Z,4.55
2022-11-10T19:07:00.006Z,4.95
2022-11-10T19:09:45.896Z,5.80
2022-11-10T19:12:32.162Z,5.68
2022-11-10T19:15:18.228Z,4.65
2022-11-10T19:18:04.371Z,4.13
2022-11-10T19:20:50.395Z,4.50
2022-11-10T19:23:36.461Z,4.38
2022-11-10T19:26:23.515Z,4.40
2022-11-10T19:29:09.647Z,4.30
2022-11-10T19:31:55.942Z,3.72
2022-11-10T19:34:41.900Z,4.30
2022-11-10T19:37:32.114Z,4.40
2022-11-10T19:40:21.478Z,4.60
2022-11-10T19:43:08.312Z,5.60
2022-11-10T19:45:54.239Z,5.05
2022-11-10T19:48:41.018Z,5.47
2022-11-10T19:51:28.670Z,6.03
2022-11-10T19:54:14.822Z,6.93
2022-11-10T19:57:01.332Z,5.60
2022-11-10T19:59:47.111Z,4.80
2022-11-10T20:02:33.202Z,5.03
2022-11-10T20:05:19.646Z,5.60
2022-11-10T20:08:13.420Z,5.40
2022-11-10T20:11:04.795Z,5.43
2022-11-10T20:13:54.980Z,5.10
2022-11-10T20:16:41.568Z,5.25
2022-11-10T20:19:27.397Z,5.45
2022-11-10T20:22:13.717Z,5.65
2022-11-10T20:25:00.175Z,5.50
2022-11-10T20:27:46.114Z,5.93
2022-11-10T20:30:37.871Z,6.30
2022-11-10T20:33:24.738Z,5.38
2022-11-10T20:39:06.478Z,5.85
2022-11-10T20:41:52.765Z,6.53
2022-11-10T20:44:39.006Z,5.50
2022-11-10T20:47:26.255Z,5.63
2022-11-10T20:53:05.947Z,6.05
2022-11-10T20:56:02.272Z,6.40
2022-11-10T20:58:49.262Z,6.00
2022-11-10T21:04:21.516Z,6.95
2022-11-10T21:07:07.543Z,6.35
2022-11-10T21:09:53.495Z,5.65
2022-11-10T21:12:51.374Z,5.68
2022-11-10T21:15:40.961Z,5.82
2022-11-10T21:18:35.268Z,5.47
2022-11-10T21:21:28.084Z,5.95
2022-11-10T21:24:14.200Z,5.45
2022-11-10T21:27:00.283Z,7.10
2022-11-10T21:29:46.523Z,5.85
2022-11-10T21:32:32.575Z,5.55
2022-11-10T21:35:18.672Z,6.28
2022-11-10T21:38:05.484Z,6.00
2022-11-10T21:40:51.430Z,5.85
2022-11-10T21:43:38.826Z,5.75
2022-11-10T21:46:25.333Z,5.50
2022-11-10T21:49:11.161Z,5.95
2022-11-10T21:51:57.190Z,5.23
2022-11-10T21:54:43.214Z,5.78
2022-11-10T21:57:29.126Z,6.07
2022-11-10T22:00:15.159Z,5.57
2022-11-10T22:03:03.640Z,6.35
2022-11-10T22:05:49.861Z,5.90
2022-11-10T22:08:36.751Z,6.70
2022-11-10T22:11:41.261Z,5.38
2022-11-10T22:14:46.028Z,5.10
2022-11-10T22:17:50.706Z,6.28
2022-11-10T22:20:36.629Z,5.75
2022-11-10T22:23:42.772Z,5.85
2022-11-10T22:26:28.565Z,6.35
2022-11-10T22:29:14.681Z,6.20
2022-11-10T22:32:01.388Z,6.80
2022-11-10T22:34:47.302Z,6.53
2022-11-10T22:37:33.370Z,6.00
2022-11-10T22:40:38.391Z,7.05
2022-11-10T22:43:42.810Z,6.10
2022-11-10T22:46:30.237Z,5.93
2022-11-10T22:49:17.605Z,5.85
2022-11-10T22:52:03.834Z,6.05
2022-11-10T22:54:49.614Z,6.22
2022-11-10T22:57:35.765Z,5.68
2022-11-10T23:00:21.680Z,5.70
2022-11-10T23:03:08.077Z,5.85
2022-11-10T23:05:56.414Z,5.78
2022-11-10T23:08:43.429Z,5.90
2022-11-10T23:14:16.269Z,5.63
2022-11-10T23:17:02.189Z,6.30
2022-11-10T23:19:47.983Z,6.95
2022-11-10T23:22:33.886Z,6.63
2022-11-10T23:25:19.801Z,6.32
2022-11-10T23:28:05.787Z,6.10
2022-11-10T23:30:51.767Z,6.38
2022-11-10T23:33:38.931Z,6.05
2022-11-10T23:36:27.484Z,5.97
2022-11-10T23:39:13.962Z,5.70
2022-11-10T23:41:59.962Z,5.68
2022-11-10T23:44:45.906Z,5.37
2022-11-10T23:47:32.015Z,5.70
2022-11-10T23:50:17.787Z,5.55
2022-11-10T23:53:03.965Z,5.38
2022-11-10T23:56:01.031Z,5.83
2022-11-10T23:58:47.033Z,5.53
